Racecast

Derek Aguirre

Umoja (CA) · 11-12 · Compare head to head

Athlete rating 82.3
Best race 86.9 TF
Races 28
Seasons 3 2013 — 2015
Speed rating — all races

Track & Field

TF speed rating

2015 TF 84.2

Umoja (CA) · Grade 11-12

Date Meet Event Result Place Rating Difficulty PR/SR Flags
2015-05-16 3M Track Club Track and Field Invitation 100m 15.73 45th · 1st on team -0.028 ★PR SR
2015-05-16 3M Track Club Track and Field Invitation 400m 1:19.18 22nd · 2nd on team -0.028
2015-05-02 Running Rebels/Top Pacers Invitational 800m 2:57.44 6th · 2nd on team 84.8 -0.038 SR
2015-05-02 Running Rebels/Top Pacers Invitational 400m 1:19.27 24th · 4th on team -0.038
2015-04-04 Sacramento Speed Factory 400m 1:18.91 41st · 3rd on team -0.033 SR
2015-04-04 Sacramento Speed Factory 800m 3:03.85 19th · 2nd on team 82.3 -0.033
2015-04-04 Sacramento Speed Factory 200m 35.4 28th · 5th on team -0.033 SR
2015-03-21 RPM Legacy 400m 1:20.53 54th · 4th on team -0.020 SR
2015-03-21 RPM Legacy 800m 2:59.2 12th · 2nd on team 85.6 -0.020 SR RSR
2015-03-21 RPM Legacy 100m 16.28 62nd · 5th on team -0.020 SR

2014 TF 84.2

Umoja (CA) · Grade 9-10

Date Meet Event Result Place Rating Difficulty PR/SR Flags
2014-05-18 3M Invitational 800m 2:55.37 7th · 1st on team 86.7 -0.028 ★PR SR
2014-05-18 3M Invitational 400m 1:16.09 7th · 1st on team -0.028 ★PR SR
2014-04-19 3rd Annual Shor/Sheppard Classic Meet 100m 15.98 18th · 2nd on team -0.022 PR SR
2014-04-19 3rd Annual Shor/Sheppard Classic Meet 800m 2:55.67 4th · 1st on team 86.9 -0.022 PR ★R SR RSR
2014-04-19 3rd Annual Shor/Sheppard Classic Meet 400m 1:17.43 5th · 1st on team -0.022 PR SR
2014-04-05 Sacramento Speed Showcase 200m 33.77 16th · 1st on team -0.033 ★PR SR
2014-04-05 Sacramento Speed Showcase 400m 1:18.4 17th · 1st on team -0.033 PR SR
2014-04-05 Sacramento Speed Showcase 800m 2:56.9 8th · 1st on team 85.3 -0.033 PR R SR RSR
2014-03-22 RPM 400m 1:21.84 21st · 2nd on team -0.012 SR
2014-03-22 RPM 800m 3:17.3 9th · 3rd on team 78.1 -0.012 PR R SR RSR

2013 TF

Umoja (CA) · Grade 9-10

Date Meet Event Result Place Rating Difficulty PR/SR Flags
2013-05-25 Central Valley Roadrunners (2-day meet) 400m 1:20.45 12th · 2nd on team -0.026 PR SR
2013-05-25 Central Valley Roadrunners (2-day meet) 200m 34.96 25th · 1st on team -0.026 PR SR
2013-05-18 3M Track Club 400m 1:22.61 22nd · 3rd on team -0.028 PR SR
2013-05-18 3M Track Club 100m 17.03 55th · 4th on team -0.028
2013-04-20 Shor / Sheppard Classic 100m 16.96 46th · 2nd on team -0.022
2013-04-20 Shor / Sheppard Classic 200m 35.59 35th · 4th on team -0.022 PR SR
2013-03-30 Stockton Saints 400m 1:24.68 39th · 7th on team -0.016 PR SR
2013-03-30 Stockton Saints 100m 16.73 43rd · 8th on team -0.016 PR SR